createdAt,value
2023-03-28T00:01:09.772Z,3.27
2023-03-28T00:03:40.074Z,2.94
2023-03-28T00:06:13.311Z,3.38
2023-03-28T00:08:42.210Z,2.89
2023-03-28T00:11:12.759Z,3.21
2023-03-28T00:13:41.593Z,2.91
2023-03-28T00:16:12.958Z,3.26
2023-03-28T00:18:42.835Z,2.91
2023-03-28T00:21:23.656Z,3.56
2023-03-28T00:23:53.616Z,3.10
2023-03-28T00:26:24.838Z,3.18
2023-03-28T00:28:53.815Z,2.91
2023-03-28T00:31:22.298Z,2.87
2023-03-28T00:33:50.921Z,2.80
2023-03-28T00:36:23.069Z,3.08
2023-03-28T00:38:52.469Z,2.67
2023-03-28T00:41:21.975Z,2.83
2023-03-28T00:43:53.268Z,3.03
2023-03-28T00:46:23.699Z,2.90
2023-03-28T00:48:54.248Z,3.00
2023-03-28T00:51:27.133Z,3.07
2023-03-28T00:53:58.195Z,3.00
2023-03-28T00:56:29.905Z,2.99
2023-03-28T00:58:59.139Z,2.87
2023-03-28T01:01:28.432Z,2.94
2023-03-28T01:04:03.137Z,2.97
2023-03-28T01:06:34.844Z,3.05
2023-03-28T01:09:06.878Z,3.04
2023-03-28T01:11:38.267Z,3.08
2023-03-28T01:14:07.951Z,2.98
2023-03-28T01:16:41.973Z,2.73
2023-03-28T01:19:15.237Z,3.12
2023-03-28T01:22:07.364Z,3.39
2023-03-28T01:25:14.703Z,3.48
2023-03-28T01:27:45.781Z,3.11
2023-03-28T01:30:32.150Z,3.33
2023-03-28T01:33:21.523Z,3.39
2023-03-28T01:36:33.997Z,3.49
2023-03-28T01:39:09.455Z,3.31
2023-03-28T01:41:43.305Z,3.40
2023-03-28T01:44:16.283Z,3.39
2023-03-28T01:46:47.296Z,3.47
2023-03-28T01:49:21.860Z,3.82
2023-03-28T01:51:58.657Z,4.05
2023-03-28T01:54:32.184Z,4.16
2023-03-28T01:57:06.003Z,4.07
2023-03-28T01:59:37.188Z,4.01
2023-03-28T02:02:09.423Z,4.13
2023-03-28T02:04:38.607Z,3.89
2023-03-28T02:07:09.062Z,3.74
2023-03-28T02:09:40.255Z,3.80
2023-03-28T02:12:13.478Z,3.83
2023-03-28T02:14:43.523Z,3.58
2023-03-28T02:17:16.829Z,3.86
2023-03-28T02:19:48.241Z,3.74
2023-03-28T02:22:21.243Z,3.87
2023-03-28T02:24:53.143Z,3.94
2023-03-28T02:27:22.819Z,3.66
2023-03-28T02:29:54.537Z,3.53
2023-03-28T02:32:23.934Z,3.52
2023-03-28T02:34:54.796Z,4.00
2023-03-28T02:37:32.720Z,4.20
2023-03-28T02:40:17.431Z,4.13
2023-03-28T02:43:12.601Z,4.25
2023-03-28T02:46:04.900Z,4.38
2023-03-28T02:48:41.963Z,4.19
2023-03-28T02:51:17.691Z,4.30
2023-03-28T02:53:53.837Z,4.22
2023-03-28T02:56:29.655Z,4.17
2023-03-28T02:58:59.911Z,3.88
2023-03-28T03:01:29.419Z,3.59
2023-03-28T03:03:58.588Z,3.83
2023-03-28T03:06:27.001Z,3.57
2023-03-28T03:08:55.515Z,3.57
2023-03-28T03:11:28.199Z,4.06
2023-03-28T03:13:57.492Z,3.87
2023-03-28T03:16:25.950Z,3.91
2023-03-28T03:18:54.432Z,3.97
2023-03-28T03:21:23.797Z,4.12
2023-03-28T03:23:52.395Z,4.30
2023-03-28T03:26:20.876Z,4.35
2023-03-28T03:28:50.721Z,4.40
2023-03-28T03:31:19.815Z,3.99
2023-03-28T03:33:48.684Z,3.89
2023-03-28T03:36:17.480Z,3.93
2023-03-28T03:38:45.977Z,3.88
2023-03-28T03:41:14.231Z,3.88
2023-03-28T03:43:43.540Z,3.90
2023-03-28T03:46:14.297Z,4.41
2023-03-28T03:48:49.499Z,4.09
2023-03-28T03:51:18.765Z,4.18
2023-03-28T03:53:50.661Z,4.15
2023-03-28T03:56:18.987Z,4.32
2023-03-28T03:58:47.536Z,4.30
2023-03-28T04:01:17.196Z,4.79
2023-03-28T04:03:48.224Z,4.35
2023-03-28T04:06:16.564Z,4.48
2023-03-28T04:08:45.040Z,4.46
2023-03-28T04:11:13.228Z,4.51
2023-03-28T04:13:41.774Z,4.53
2023-03-28T04:16:11.957Z,4.75
2023-03-28T04:18:42.125Z,4.84
2023-03-28T04:21:10.485Z,4.33
2023-03-28T04:23:43.700Z,4.41
2023-03-28T04:26:20.643Z,4.46
2023-03-28T04:28:49.168Z,4.50
2023-03-28T04:31:17.490Z,4.65
2023-03-28T04:33:47.554Z,4.96
2023-03-28T04:36:16.867Z,4.71
2023-03-28T04:38:46.778Z,4.70
2023-03-28T04:41:16.921Z,4.80
2023-03-28T04:43:45.708Z,4.93
2023-03-28T04:46:14.060Z,4.85
2023-03-28T04:48:42.613Z,4.74
2023-03-28T04:51:12.374Z,4.93
2023-03-28T04:53:40.992Z,4.69
2023-03-28T04:56:14.088Z,4.96
2023-03-28T04:58:42.808Z,4.81
2023-03-28T05:01:11.862Z,4.72
2023-03-28T05:03:40.493Z,4.84
2023-03-28T05:06:10.853Z,5.00
2023-03-28T05:08:43.875Z,5.33
2023-03-28T05:11:12.529Z,5.05
2023-03-28T05:13:41.112Z,4.95
2023-03-28T05:16:09.742Z,5.13
2023-03-28T05:18:38.252Z,4.98
2023-03-28T05:21:07.389Z,4.99
2023-03-28T05:23:36.092Z,4.90
2023-03-28T05:26:06.732Z,5.40
2023-03-28T05:28:35.961Z,5.17
2023-03-28T05:31:06.641Z,5.41
2023-03-28T05:33:35.848Z,5.65
2023-03-28T05:36:04.675Z,5.66
2023-03-28T05:38:33.877Z,5.40
2023-03-28T05:41:03.362Z,5.28
2023-03-28T05:43:33.261Z,5.56
2023-03-28T05:46:01.719Z,5.39
2023-03-28T05:48:31.897Z,5.25
2023-03-28T05:51:00.602Z,5.45
2023-03-28T05:53:29.315Z,5.52
2023-03-28T05:55:57.584Z,5.43
2023-03-28T05:58:26.084Z,5.38
2023-03-28T06:00:56.850Z,5.77
2023-03-28T06:03:25.980Z,5.36
2023-03-28T06:05:54.410Z,5.33
2023-03-28T06:08:22.952Z,5.46
2023-03-28T06:10:51.265Z,5.47
2023-03-28T06:13:19.753Z,5.36
2023-03-28T06:15:47.938Z,5.37
2023-03-28T06:18:17.920Z,5.87
2023-03-28T06:20:46.254Z,5.42
2023-03-28T06:23:14.793Z,5.47
2023-03-28T06:25:43.049Z,5.33
2023-03-28T06:28:11.690Z,5.22
2023-03-28T06:30:41.156Z,5.19
2023-03-28T06:33:09.867Z,5.00
2023-03-28T06:35:39.446Z,4.86
2023-03-28T06:38:08.069Z,4.49
2023-03-28T06:40:38.887Z,4.44
2023-03-28T06:43:07.398Z,4.49
2023-03-28T06:45:35.619Z,4.51
2023-03-28T06:48:04.304Z,4.37
2023-03-28T06:50:32.546Z,4.53
2023-03-28T06:53:02.685Z,5.86
2023-03-28T06:55:30.878Z,7.69
2023-03-28T06:57:59.475Z,9.99
2023-03-28T07:00:27.825Z,10.77
2023-03-28T07:02:56.618Z,9.95
2023-03-28T07:05:25.087Z,9.28
2023-03-28T07:07:53.628Z,9.49
2023-03-28T07:10:23.657Z,10.25
2023-03-28T07:12:52.218Z,10.09
2023-03-28T07:15:20.638Z,9.97
2023-03-28T07:17:49.096Z,9.72
2023-03-28T07:20:17.471Z,9.33
2023-03-28T07:22:46.134Z,8.63
2023-03-28T07:25:14.406Z,8.07
2023-03-28T07:27:44.362Z,7.80
2023-03-28T07:30:13.767Z,6.93
2023-03-28T07:32:54.325Z,6.53
2023-03-28T07:35:28.320Z,6.46
2023-03-28T07:37:57.655Z,6.75
2023-03-28T07:40:26.300Z,7.07
2023-03-28T07:42:56.263Z,7.16
2023-03-28T07:45:24.582Z,7.18
2023-03-28T07:47:53.253Z,7.62
2023-03-28T07:50:25.046Z,7.52
2023-03-28T07:52:57.681Z,7.13
2023-03-28T07:55:26.675Z,6.88
2023-03-28T07:57:56.637Z,7.43
2023-03-28T08:00:25.227Z,7.22
2023-03-28T08:02:53.851Z,7.06
2023-03-28T08:05:24.278Z,6.79
2023-03-28T08:07:53.969Z,6.72
2023-03-28T08:10:22.506Z,6.66
2023-03-28T08:12:51.165Z,6.52
2023-03-28T08:15:21.055Z,6.65
2023-03-28T08:17:49.830Z,6.43
2023-03-28T08:20:19.779Z,6.24
2023-03-28T08:22:48.582Z,5.75
2023-03-28T08:25:16.966Z,6.08
2023-03-28T08:27:45.612Z,7.33
2023-03-28T08:30:14.554Z,9.83
2023-03-28T08:32:46.271Z,12.49
2023-03-28T08:35:16.707Z,12.89
2023-03-28T08:37:48.038Z,12.69
2023-03-28T08:40:19.701Z,12.78
2023-03-28T08:43:01.670Z,11.48
2023-03-28T08:45:38.486Z,10.29
2023-03-28T08:48:18.983Z,10.24
2023-03-28T08:50:49.542Z,10.35
2023-03-28T08:53:26.630Z,10.25
2023-03-28T08:55:55.210Z,9.16
2023-03-28T08:58:25.181Z,8.34
2023-03-28T09:01:12.502Z,9.81
2023-03-28T09:03:47.811Z,10.79
2023-03-28T09:06:37.303Z,11.57
2023-03-28T09:09:38.565Z,13.21
2023-03-28T09:12:39.020Z,13.83
2023-03-28T09:15:35.605Z,13.96
2023-03-28T09:18:38.309Z,15.48
2023-03-28T09:21:15.217Z,18.82
2023-03-28T09:24:09.965Z,21.12
2023-03-28T09:26:48.855Z,20.86
2023-03-28T09:29:28.580Z,21.08
2023-03-28T09:32:17.663Z,22.42
2023-03-28T09:34:57.618Z,24.31
2023-03-28T09:37:49.274Z,26.29
2023-03-28T09:40:42.815Z,27.05
2023-03-28T09:43:17.123Z,24.93
2023-03-28T09:46:03.253Z,21.30
2023-03-28T09:48:49.109Z,17.89
2023-03-28T09:51:19.899Z,14.90
2023-03-28T09:53:59.535Z,13.41
2023-03-28T09:56:38.566Z,12.34
2023-03-28T09:59:17.022Z,12.31
2023-03-28T10:02:00.332Z,13.74
2023-03-28T10:04:54.077Z,16.13
2023-03-28T10:07:42.815Z,18.66
2023-03-28T10:10:25.375Z,17.89
2023-03-28T10:13:03.528Z,16.25
2023-03-28T10:15:41.037Z,14.93
2023-03-28T10:18:40.772Z,16.08
2023-03-28T10:21:21.413Z,15.53
2023-03-28T10:24:04.598Z,15.61
2023-03-28T10:26:41.415Z,17.26
2023-03-28T10:29:18.524Z,17.87
2023-03-28T10:31:54.003Z,17.08
2023-03-28T10:34:35.543Z,17.20
2023-03-28T10:37:23.263Z,16.66
2023-03-28T10:40:01.605Z,17.24
2023-03-28T10:42:55.651Z,21.16
2023-03-28T10:45:38.671Z,23.73
2023-03-28T10:48:27.598Z,25.52
2023-03-28T10:51:12.593Z,26.17
2023-03-28T10:54:16.503Z,27.29
2023-03-28T10:57:04.914Z,28.18
2023-03-28T10:59:54.653Z,29.34
2023-03-28T11:02:50.417Z,29.84
2023-03-28T11:05:32.315Z,29.50
2023-03-28T11:08:39.980Z,29.53
2023-03-28T11:11:32.133Z,30.18
2023-03-28T11:14:03.573Z,31.09
2023-03-28T11:16:52.062Z,27.98
2023-03-28T11:20:06.661Z,26.06
2023-03-28T11:23:04.728Z,24.28
2023-03-28T11:25:52.234Z,22.33
2023-03-28T11:28:46.067Z,20.46
2023-03-28T11:31:26.029Z,20.89
2023-03-28T11:34:04.976Z,21.11
2023-03-28T11:37:00.320Z,22.09
2023-03-28T11:39:39.355Z,23.23
2023-03-28T11:42:28.997Z,24.01
2023-03-28T11:45:03.447Z,23.74
2023-03-28T11:47:34.650Z,23.19
2023-03-28T11:50:24.109Z,21.35
2023-03-28T11:53:11.373Z,19.25
2023-03-28T11:55:44.170Z,17.15
2023-03-28T11:58:19.470Z,15.10
2023-03-28T12:01:02.705Z,13.45
2023-03-28T12:03:49.111Z,11.79
2023-03-28T12:06:34.313Z,11.28
2023-03-28T12:09:17.014Z,11.08
2023-03-28T12:11:58.075Z,10.79
2023-03-28T12:14:42.536Z,10.60
2023-03-28T12:17:24.120Z,10.95
2023-03-28T12:19:56.767Z,11.09
2023-03-28T12:22:34.477Z,11.59
2023-03-28T12:25:12.194Z,11.62
2023-03-28T12:27:55.040Z,11.64
2023-03-28T12:30:26.507Z,10.64
2023-03-28T12:33:01.564Z,11.00
2023-03-28T12:35:35.660Z,10.63
2023-03-28T12:38:14.422Z,10.70
2023-03-28T12:40:52.454Z,10.39
2023-03-28T12:43:24.968Z,9.83
2023-03-28T12:45:57.565Z,9.49
2023-03-28T12:48:33.402Z,9.42
2023-03-28T12:51:06.539Z,8.77
2023-03-28T12:53:44.674Z,8.56
2023-03-28T12:56:15.206Z,8.18
2023-03-28T12:58:46.821Z,7.86
2023-03-28T13:01:19.557Z,8.58
2023-03-28T13:03:56.762Z,8.66
2023-03-28T13:06:30.144Z,8.83
2023-03-28T13:09:13.059Z,8.91
2023-03-28T13:11:45.926Z,8.73
2023-03-28T13:14:33.669Z,9.20
2023-03-28T13:17:03.708Z,8.97
2023-03-28T13:19:39.587Z,9.22
2023-03-28T13:22:26.459Z,9.39
2023-03-28T13:25:29.021Z,9.35
2023-03-28T13:27:58.084Z,8.77
2023-03-28T13:30:28.952Z,8.63
2023-03-28T13:32:58.858Z,8.83
2023-03-28T13:35:47.377Z,9.42
2023-03-28T13:38:33.579Z,9.13
2023-03-28T13:41:06.675Z,8.89
2023-03-28T13:43:42.799Z,8.84
2023-03-28T13:46:16.279Z,8.33
2023-03-28T13:48:49.670Z,8.18
2023-03-28T13:51:20.936Z,7.98
2023-03-28T13:53:49.812Z,7.03
2023-03-28T13:56:24.465Z,8.04
2023-03-28T13:58:55.706Z,8.13
2023-03-28T14:01:26.282Z,8.26
2023-03-28T14:03:56.008Z,8.30
2023-03-28T14:06:25.870Z,7.70
2023-03-28T14:08:56.697Z,7.06
2023-03-28T14:11:30.459Z,6.63
2023-03-28T14:14:06.068Z,6.40
2023-03-28T14:16:36.145Z,6.09
2023-03-28T14:19:05.187Z,6.85
2023-03-28T14:21:34.594Z,7.04
2023-03-28T14:24:04.275Z,6.49
2023-03-28T14:26:36.792Z,6.94
2023-03-28T14:29:08.445Z,6.73
2023-03-28T14:31:40.411Z,7.02
2023-03-28T14:34:18.266Z,7.83
2023-03-28T14:37:01.295Z,8.55
2023-03-28T14:39:31.468Z,8.31
2023-03-28T14:42:03.927Z,8.20
2023-03-28T14:44:36.582Z,7.48
2023-03-28T14:47:05.439Z,7.03
2023-03-28T14:49:34.330Z,7.01
2023-03-28T14:52:03.675Z,6.94
2023-03-28T14:54:34.675Z,7.20
2023-03-28T14:57:06.189Z,7.31
2023-03-28T14:59:37.725Z,7.30
2023-03-28T15:02:07.067Z,7.19
2023-03-28T15:04:35.999Z,7.07
2023-03-28T15:07:05.184Z,6.99
2023-03-28T15:09:34.624Z,7.10
2023-03-28T15:12:08.065Z,7.10
2023-03-28T15:14:39.936Z,7.17
2023-03-28T15:17:09.292Z,6.64
2023-03-28T15:19:38.851Z,7.19
2023-03-28T15:22:11.655Z,7.84
2023-03-28T15:24:40.625Z,7.52
2023-03-28T15:27:21.366Z,8.28
2023-03-28T15:29:49.744Z,7.62
2023-03-28T15:32:20.412Z,7.87
2023-03-28T15:34:55.273Z,7.58
2023-03-28T15:37:27.305Z,7.47
2023-03-28T15:39:55.772Z,6.89
2023-03-28T15:42:36.621Z,7.32
2023-03-28T15:45:22.498Z,7.19
2023-03-28T15:47:54.203Z,6.71
2023-03-28T15:50:25.885Z,7.06
2023-03-28T15:52:58.748Z,6.71
2023-03-28T15:55:27.886Z,6.47
2023-03-28T15:57:58.378Z,6.67
2023-03-28T16:00:47.431Z,6.91
2023-03-28T16:03:34.620Z,6.63
2023-03-28T16:06:23.046Z,6.29
2023-03-28T16:09:14.499Z,6.56
2023-03-28T16:11:42.878Z,5.54
2023-03-28T16:14:15.600Z,5.50
2023-03-28T16:16:44.076Z,5.21
2023-03-28T16:19:17.650Z,5.72
2023-03-28T16:21:46.192Z,5.27
2023-03-28T16:24:15.088Z,4.83
2023-03-28T16:26:43.424Z,4.80
2023-03-28T16:29:12.546Z,4.87
2023-03-28T16:31:43.972Z,5.44
2023-03-28T16:34:12.640Z,5.06
2023-03-28T16:36:41.154Z,5.37
2023-03-28T16:39:09.812Z,5.38
2023-03-28T16:41:38.350Z,5.60
2023-03-28T16:44:06.979Z,5.74
2023-03-28T16:46:35.656Z,5.94
2023-03-28T16:49:05.808Z,6.43
2023-03-28T16:51:34.111Z,6.01
2023-03-28T16:54:02.801Z,6.00
2023-03-28T16:56:31.521Z,6.08
2023-03-28T16:59:00.391Z,6.17
2023-03-28T17:01:28.707Z,6.09
2023-03-28T17:03:57.468Z,5.96
2023-03-28T17:06:27.783Z,6.15
2023-03-28T17:08:56.374Z,5.41
2023-03-28T17:11:24.700Z,5.48
2023-03-28T17:13:54.665Z,5.78
2023-03-28T17:16:23.178Z,5.43
2023-03-28T17:18:51.873Z,5.23
2023-03-28T17:21:20.753Z,5.39
2023-03-28T17:23:52.841Z,5.77
2023-03-28T17:26:21.734Z,5.43
2023-03-28T17:28:51.809Z,5.55
2023-03-28T17:31:21.892Z,5.94
2023-03-28T17:33:50.756Z,5.60
2023-03-28T17:36:22.052Z,5.90
2023-03-28T17:38:53.414Z,5.98
2023-03-28T17:41:23.288Z,5.70
2023-03-28T17:43:52.481Z,5.72
2023-03-28T17:46:21.476Z,5.50
2023-03-28T17:48:50.837Z,5.61
2023-03-28T17:51:19.292Z,5.34
2023-03-28T17:53:47.941Z,5.36
2023-03-28T17:56:17.919Z,5.65
2023-03-28T17:58:46.724Z,5.33
2023-03-28T18:01:17.029Z,5.60
2023-03-28T18:03:46.078Z,5.31
2023-03-28T18:06:14.592Z,5.33
2023-03-28T18:08:44.844Z,5.25
2023-03-28T18:11:15.544Z,5.65
2023-03-28T18:13:45.758Z,5.78
2023-03-28T18:16:15.729Z,5.67
2023-03-28T18:18:44.892Z,5.27
2023-03-28T18:21:13.121Z,5.27
2023-03-28T18:23:42.689Z,5.36
2023-03-28T18:26:12.199Z,5.24
2023-03-28T18:28:41.173Z,5.22
2023-03-28T18:31:12.855Z,5.61
2023-03-28T18:33:43.009Z,5.10
2023-03-28T18:36:12.412Z,5.12
2023-03-28T18:38:42.414Z,4.70
2023-03-28T18:41:12.755Z,4.66
2023-03-28T18:43:42.530Z,4.45
2023-03-28T18:46:16.006Z,4.69
2023-03-28T18:48:45.622Z,4.22
2023-03-28T18:51:14.118Z,4.10
2023-03-28T18:53:43.308Z,4.17
2023-03-28T18:56:13.692Z,4.04
2023-03-28T18:58:43.951Z,3.89
2023-03-28T19:01:13.884Z,4.18
2023-03-28T19:03:43.164Z,3.87
2023-03-28T19:06:13.548Z,4.09
2023-03-28T19:08:42.152Z,3.78
2023-03-28T19:11:13.474Z,4.15
2023-03-28T19:13:42.740Z,3.84
2023-03-28T19:16:13.767Z,3.90
2023-03-28T19:18:42.554Z,4.61
2023-03-28T19:21:11.900Z,3.81
2023-03-28T19:23:41.367Z,3.73
2023-03-28T19:26:11.236Z,3.75
2023-03-28T19:28:40.007Z,3.53
2023-03-28T19:31:10.133Z,3.75
2023-03-28T19:33:41.038Z,3.82
2023-03-28T19:36:09.799Z,3.47
2023-03-28T19:38:39.513Z,3.64
2023-03-28T19:41:16.992Z,3.61
2023-03-28T19:43:46.132Z,3.32
2023-03-28T19:46:17.003Z,3.66
2023-03-28T19:48:46.901Z,4.25
2023-03-28T19:51:15.624Z,3.31
2023-03-28T19:53:44.310Z,3.21
2023-03-28T19:56:14.106Z,3.02
2023-03-28T19:58:45.357Z,3.06
2023-03-28T20:01:13.811Z,3.03
2023-03-28T20:03:42.426Z,2.97
2023-03-28T20:06:14.698Z,3.44
2023-03-28T20:08:43.419Z,3.00
2023-03-28T20:11:12.765Z,3.18
2023-03-28T20:13:42.091Z,3.15
2023-03-28T20:16:12.104Z,3.30
2023-03-28T20:18:41.093Z,3.07
2023-03-28T20:21:12.240Z,3.31
2023-03-28T20:23:41.126Z,2.97
2023-03-28T20:26:14.661Z,3.43
2023-03-28T20:28:46.414Z,3.03
2023-03-28T20:31:15.894Z,2.94
2023-03-28T20:33:45.229Z,2.93
2023-03-28T20:36:14.815Z,3.27
2023-03-28T20:38:43.402Z,2.78
2023-03-28T20:41:12.564Z,3.08
2023-03-28T20:43:46.675Z,2.91
2023-03-28T20:46:18.453Z,2.78
2023-03-28T20:48:48.174Z,2.79
2023-03-28T20:51:18.866Z,3.16
2023-03-28T20:53:49.678Z,3.22
2023-03-28T20:56:19.046Z,3.08
2023-03-28T20:58:48.003Z,2.94
2023-03-28T21:01:17.719Z,3.00
2023-03-28T21:03:51.094Z,2.83
2023-03-28T21:06:22.520Z,3.27
2023-03-28T21:08:52.701Z,3.07
2023-03-28T21:11:23.797Z,3.10
2023-03-28T21:13:52.370Z,2.70
2023-03-28T21:16:21.278Z,2.72
2023-03-28T21:18:50.022Z,2.74
2023-03-28T21:21:20.983Z,2.90
2023-03-28T21:23:50.095Z,2.82
2023-03-28T21:26:19.759Z,2.89
2023-03-28T21:28:48.876Z,2.63
2023-03-28T21:31:19.960Z,2.75
2023-03-28T21:33:49.115Z,2.60
2023-03-28T21:36:19.146Z,2.74
2023-03-28T21:38:49.511Z,2.84
2023-03-28T21:41:17.923Z,2.39
2023-03-28T21:43:47.700Z,2.37
2023-03-28T21:46:18.640Z,2.58
2023-03-28T21:48:48.087Z,2.49
2023-03-28T21:51:17.914Z,2.53
2023-03-28T21:53:48.366Z,2.47
2023-03-28T21:56:16.876Z,2.17
2023-03-28T21:58:45.459Z,2.13
2023-03-28T22:01:15.054Z,2.51
2023-03-28T22:03:45.632Z,2.27
2023-03-28T22:06:14.089Z,2.21
2023-03-28T22:08:43.413Z,2.32
2023-03-28T22:11:14.870Z,2.60
2023-03-28T22:13:45.001Z,2.45
2023-03-28T22:16:14.329Z,2.17
2023-03-28T22:18:50.399Z,2.27
2023-03-28T22:21:18.741Z,2.13
2023-03-28T22:23:47.803Z,2.15
2023-03-28T22:26:18.016Z,2.47
2023-03-28T22:28:46.696Z,2.09
2023-03-28T22:31:17.100Z,2.10
2023-03-28T22:33:45.707Z,2.12
2023-03-28T22:36:14.001Z,2.08
2023-03-28T22:38:42.564Z,2.00
2023-03-28T22:41:11.158Z,2.08
2023-03-28T22:43:42.897Z,2.27
2023-03-28T22:46:12.683Z,2.07
2023-03-28T22:48:42.132Z,1.89
2023-03-28T22:51:12.063Z,1.89
2023-03-28T22:53:41.244Z,2.04
2023-03-28T22:56:12.591Z,1.97
2023-03-28T22:58:42.714Z,2.19
2023-03-28T23:01:10.964Z,1.83
2023-03-28T23:03:39.519Z,1.86
2023-03-28T23:06:08.415Z,1.94
2023-03-28T23:08:37.618Z,1.74
2023-03-28T23:11:06.921Z,1.88
2023-03-28T23:13:35.465Z,1.87
2023-03-28T23:16:05.820Z,2.10
2023-03-28T23:18:34.306Z,1.75
2023-03-28T23:21:02.749Z,1.73
2023-03-28T23:23:32.401Z,1.74
2023-03-28T23:26:00.882Z,1.81
2023-03-28T23:28:29.417Z,1.68
2023-03-28T23:30:57.706Z,1.77
2023-03-28T23:33:27.641Z,2.12
2023-03-28T23:35:56.357Z,1.72
2023-03-28T23:38:24.937Z,1.68
2023-03-28T23:40:53.105Z,1.67
2023-03-28T23:43:21.702Z,1.53
2023-03-28T23:45:50.036Z,1.47
2023-03-28T23:48:18.470Z,1.33
2023-03-28T23:50:48.151Z,1.78
2023-03-28T23:53:16.714Z,1.41
2023-03-28T23:55:45.120Z,1.46
2023-03-28T23:58:13.698Z,1.45
